Time;durP1;ratioP1;P1;durP2;ratioP2;P2;SDS_P1;SDS_P2;PMS_P1;PMS_P2;Temp;Humidity;BMP_temperature;BMP_pressure;BME280_temperature;BME280_humidity;BME280_pressure;Samples;Min_cycle;Max_cycle;Signal;HPM_P1;HPM_P2
2023/06/30 00:01:58;;;;;;;;;;;25.40;46.40;;;24.88;46.03;100744.44;12250007;19;19921;-89
2023/06/30 00:05:59;;;;;;;;;;;25.40;46.50;;;24.65;45.59;100704.34;12253162;19;19925;-88
2023/06/30 00:10:02;;;;;;;;;;;25.40;46.50;;;24.80;46.09;100741.84;12250480;19;19935;-88
2023/06/30 00:14:03;;;;;;;;;;;25.40;46.50;;;24.87;46.04;100748.09;12246323;19;20536;-89
2023/06/30 00:18:05;;;;;;;;;;;25.40;46.50;;;24.79;45.66;100740.16;12250088;19;19974;-89
2023/06/30 00:22:07;;;;;;;;;;;25.40;46.60;;;24.79;45.94;100746.34;12248787;19;19915;-90
2023/06/30 00:26:09;;;;;;;;;;;25.40;46.60;;;24.85;46.01;100760.84;12249848;19;19923;-89
2023/06/30 00:30:11;;;;;;;;;;;25.40;46.60;;;24.81;46.19;100744.31;12250484;19;19923;-90
2023/06/30 00:34:12;;;;;;;;;;;25.40;46.60;;;24.81;46.01;100743.47;12248148;19;19911;-89
2023/06/30 00:38:14;;;;;;;;;;;25.40;47.10;;;24.82;46.29;100739.81;12250973;19;20269;-90
2023/06/30 00:42:16;;;;;;;;;;;25.40;46.80;;;24.61;46.04;100703.88;12249229;19;19926;-89
2023/06/30 00:46:18;;;;;;;;;;;25.40;46.80;;;24.82;46.56;100735.31;12248814;19;19919;-90
2023/06/30 00:50:20;;;;;;;;;;;25.40;46.90;;;24.82;46.44;100732.63;12249456;19;19911;-89
2023/06/30 00:54:21;;;;;;;;;;;25.40;46.90;;;24.70;46.17;100710.81;12245913;19;19933;-89
2023/06/30 00:58:24;;;;;;;;;;;25.40;46.90;;;24.80;46.51;100729.31;12246563;19;19915;-90
2023/06/30 01:02:27;;;;;;;;;;;25.40;46.90;;;24.66;46.33;100714.88;12248285;19;20254;-90
2023/06/30 01:06:58;;;;;;;;;;;25.40;46.90;;;24.78;46.12;100733.97;12245781;19;19923;-89
2023/06/30 01:11:00;;;;;;;;;;;25.40;46.90;;;24.70;46.12;100716.16;12243647;19;19921;-90
2023/06/30 01:15:02;;;;;;;;;;;25.40;46.90;;;24.66;46.17;100709.53;12246878;19;19978;-90
2023/06/30 01:19:07;;;;;;;;;;;25.30;46.90;;;24.62;46.67;100702.03;12246076;19;19915;-90
2023/06/30 01:23:33;;;;;;;;;;;25.30;47.00;;;24.65;46.48;100710.53;12243893;19;19939;-90
2023/06/30 01:27:36;;;;;;;;;;;25.30;47.00;;;24.55;46.58;100696.59;12245641;19;19926;-90
2023/06/30 01:31:38;;;;;;;;;;;25.30;47.10;;;24.58;46.71;100706.09;12244322;19;19915;-90
2023/06/30 01:35:40;;;;;;;;;;;25.30;47.10;;;24.61;46.38;100711.91;12245499;19;19915;-90
2023/06/30 01:39:41;;;;;;;;;;;25.20;47.10;;;24.55;46.39;100706.41;12245245;19;19931;-90
2023/06/30 01:43:44;;;;;;;;;;;25.20;47.00;;;24.48;46.92;100711.66;12237461;19;19914;-90
2023/06/30 01:47:46;;;;;;;;;;;25.20;47.20;;;24.18;46.48;100663.41;12246048;19;19927;-90
2023/06/30 01:51:48;;;;;;;;;;;25.20;47.30;;;24.37;46.62;100699.50;12242103;19;19999;-90
2023/06/30 01:55:52;;;;;;;;;;;25.10;47.30;;;24.19;46.62;100675.72;12244339;19;19921;-89
2023/06/30 01:59:53;;;;;;;;;;;25.10;47.50;;;24.40;46.62;100712.47;12244468;19;20241;-90
2023/06/30 02:03:55;;;;;;;;;;;25.10;47.40;;;24.38;47.02;100706.47;12242830;19;20253;-90
2023/06/30 02:07:57;;;;;;;;;;;25.10;47.50;;;24.41;46.96;100714.16;12246721;19;19930;-89
2023/06/30 02:11:59;;;;;;;;;;;25.10;47.60;;;24.30;46.94;100698.53;12255188;19;19923;-89
2023/06/30 02:16:01;;;;;;;;;;;25.00;47.50;;;24.28;46.98;100698.72;12254609;19;19923;-89
2023/06/30 02:20:05;;;;;;;;;;;25.00;47.70;;;24.36;46.78;100705.84;12254399;19;19914;-89
2023/06/30 02:24:08;;;;;;;;;;;25.00;47.70;;;24.34;47.00;100704.38;12251500;19;19968;-89
2023/06/30 02:28:10;;;;;;;;;;;25.00;47.70;;;24.34;46.82;100707.84;12254385;19;19929;-89
2023/06/30 02:32:12;;;;;;;;;;;25.00;47.70;;;24.26;46.99;100687.38;12254709;19;19915;-89
2023/06/30 02:36:14;;;;;;;;;;;25.00;47.70;;;24.20;46.95;100692.59;12255544;19;19934;-89
2023/06/30 02:40:16;;;;;;;;;;;24.90;47.70;;;24.34;47.30;100710.53;12255652;19;19990;-89
2023/06/30 02:44:17;;;;;;;;;;;25.00;47.80;;;24.13;46.87;100675.59;12251182;19;19910;-89
2023/06/30 02:48:22;;;;;;;;;;;24.90;47.80;;;24.25;47.23;100691.06;12254381;19;19922;-90
2023/06/30 02:52:24;;;;;;;;;;;24.90;47.90;;;24.24;46.91;100694.72;12253413;19;19915;-89
2023/06/30 02:56:26;;;;;;;;;;;24.90;48.00;;;24.19;47.32;100698.91;12257891;19;19915;-89
2023/06/30 03:00:30;;;;;;;;;;;24.90;48.00;;;24.18;47.29;100699.94;12257948;19;19922;-89
2023/06/30 03:04:32;;;;;;;;;;;24.90;48.00;;;24.15;47.20;100705.63;12254802;19;19919;-89
2023/06/30 03:08:34;;;;;;;;;;;24.90;48.10;;;24.22;47.33;100707.44;12256152;19;19918;-89
2023/06/30 03:12:36;;;;;;;;;;;24.90;48.10;;;24.26;47.25;100722.06;12255190;19;20325;-90
2023/06/30 03:16:37;;;;;;;;;;;24.90;48.10;;;24.07;47.60;100677.13;12257120;19;19978;-90
2023/06/30 03:20:39;;;;;;;;;;;24.90;48.20;;;24.22;47.42;100701.22;12258386;19;19915;-89
2023/06/30 03:24:41;;;;;;;;;;;24.90;48.20;;;24.23;47.71;100709.06;12256205;19;19915;-90
2023/06/30 03:28:43;;;;;;;;;;;24.80;48.20;;;24.23;47.32;100709.06;12258218;19;19918;-91
2023/06/30 03:32:45;;;;;;;;;;;24.80;48.30;;;23.81;47.53;100634.72;12251955;19;19923;-91
2023/06/30 03:36:47;;;;;;;;;;;24.80;48.40;;;23.94;47.29;100644.84;12257048;19;19915;-91
2023/06/30 03:41:31;;;;;;;;;;;24.80;48.40;;;24.14;47.72;100675.44;12260876;19;19915;-91
2023/06/30 03:46:15;;;;;;;;;;;24.80;48.40;;;24.02;47.30;100674.16;12260639;19;19919;-90
2023/06/30 03:50:53;;;;;;;;;;;24.70;48.40;;;23.97;47.69;100663.16;12261745;19;19925;-90
2023/06/30 03:55:07;;;;;;;;;;;24.70;48.50;;;24.01;47.92;100680.50;12262269;19;19918;-90
2023/06/30 03:59:16;;;;;;;;;;;24.70;48.50;;;23.91;47.84;100661.19;12260192;19;19932;-90
2023/06/30 04:03:28;;;;;;;;;;;24.60;48.50;;;23.99;47.72;100666.50;12259880;19;19919;-90
2023/06/30 04:07:37;;;;;;;;;;;24.60;48.70;;;23.92;47.81;100654.84;12264396;19;19940;-90
2023/06/30 04:11:44;;;;;;;;;;;24.60;48.70;;;23.89;47.97;100657.88;12261676;19;19915;-90
2023/06/30 04:15:46;;;;;;;;;;;24.50;48.60;;;23.89;48.05;100664.03;12260495;19;20325;-90
2023/06/30 04:19:49;;;;;;;;;;;24.50;48.70;;;23.91;47.81;100669.22;12260422;19;19939;-90
2023/06/30 04:23:52;;;;;;;;;;;24.50;48.70;;;23.88;48.13;100664.22;12256493;19;19911;-89
2023/06/30 04:27:54;;;;;;;;;;;24.50;48.80;;;23.86;48.27;100667.06;12260911;19;19919;-90
2023/06/30 04:31:57;;;;;;;;;;;24.50;48.90;;;23.50;48.17;100621.34;12253412;19;19927;-90
2023/06/30 04:35:59;;;;;;;;;;;24.50;48.90;;;23.64;48.09;100644.59;12258065;19;19927;-90
2023/06/30 04:40:05;;;;;;;;;;;24.50;48.90;;;23.59;48.21;100620.28;12257086;19;20341;-90
2023/06/30 04:44:07;;;;;;;;;;;24.50;49.10;;;23.78;48.23;100649.25;12256511;19;20467;-89
2023/06/30 04:48:09;;;;;;;;;;;24.50;49.30;;;23.57;48.14;100606.28;12257719;19;19926;-89
2023/06/30 04:52:10;;;;;;;;;;;24.50;49.20;;;23.56;48.44;100608.13;12254308;19;19986;-89
2023/06/30 04:56:12;;;;;;;;;;;24.50;49.20;;;23.55;48.30;100603.00;12256327;19;20329;-88
2023/06/30 05:00:14;;;;;;;;;;;24.60;49.30;;;23.53;48.24;100603.16;12248573;19;20612;-88
2023/06/30 05:04:16;;;;;;;;;;;24.50;49.20;;;23.85;48.09;100652.06;12247553;19;19931;-88
2023/06/30 05:08:18;;;;;;;;;;;24.50;49.10;;;23.82;48.58;100645.25;12251779;19;19914;-89
2023/06/30 05:12:19;;;;;;;;;;;24.50;49.20;;;23.84;48.63;100653.91;12247363;19;19939;-89
2023/06/30 05:16:21;;;;;;;;;;;24.50;49.20;;;23.82;48.66;100652.41;12246456;19;20371;-90
2023/06/30 05:20:23;;;;;;;;;;;24.50;49.20;;;23.81;48.64;100646.22;12247634;19;20315;-89
2023/06/30 05:24:24;;;;;;;;;;;24.50;49.20;;;23.85;48.52;100658.22;12247129;19;20021;-90
2023/06/30 05:28:26;;;;;;;;;;;24.60;49.30;;;23.83;48.30;100657.56;12247469;19;20605;-88
2023/06/30 05:32:27;;;;;;;;;;;24.60;49.50;;;23.83;48.60;100654.06;12249080;19;19925;-88
2023/06/30 05:36:30;;;;;;;;;;;24.50;49.40;;;23.52;48.45;100589.97;12252239;19;19946;-89
2023/06/30 05:40:32;;;;;;;;;;;24.60;49.50;;;23.87;48.68;100647.38;12248596;19;19930;-89
2023/06/30 05:44:33;;;;;;;;;;;24.60;49.60;;;23.94;48.96;100631.50;12255532;19;19915;-88
2023/06/30 05:48:34;;;;;;;;;;;24.60;49.70;;;23.97;48.75;100631.97;12253259;19;19930;-89
2023/06/30 05:52:36;;;;;;;;;;;24.70;49.90;;;24.02;49.07;100636.81;12256527;19;19911;-89
2023/06/30 05:56:38;;;;;;;;;;;24.70;49.80;;;23.87;48.95;100606.53;12258500;19;19918;-90
2023/06/30 06:00:39;;;;;;;;;;;24.70;50.00;;;24.02;49.16;100615.47;12257549;19;19922;-89
2023/06/30 06:04:41;;;;;;;;;;;24.80;49.90;;;24.12;49.18;100632.09;12251650;19;19974;-85
2023/06/30 06:08:46;;;;;;;;;;;24.80;50.00;;;24.16;49.03;100641.38;12254932;19;19957;-85
2023/06/30 06:12:51;;;;;;;;;;;24.90;50.10;;;24.00;49.20;100609.47;12255618;19;19919;-86
2023/06/30 06:16:53;;;;;;;;;;;24.90;49.90;;;24.14;49.04;100640.75;12256876;19;19915;-85
2023/06/30 06:20:55;;;;;;;;;;;24.90;49.80;;;24.21;48.94;100646.22;12256798;19;20652;-85
2023/06/30 06:24:57;;;;;;;;;;;24.90;49.90;;;24.15;49.16;100630.91;12253073;19;19923;-86
2023/06/30 06:28:58;;;;;;;;;;;25.00;49.80;;;24.16;49.29;100638.72;12256383;19;20545;-85
2023/06/30 06:33:00;;;;;;;;;;;25.00;49.80;;;24.03;49.30;100609.97;12252117;19;20327;-85
2023/06/30 06:37:01;;;;;;;;;;;25.00;49.80;;;24.18;48.92;100644.72;12255085;19;20313;-85
2023/06/30 06:41:03;;;;;;;;;;;25.00;49.70;;;24.19;49.42;100638.38;12254422;19;19915;-85
2023/06/30 06:45:05;;;;;;;;;;;25.00;50.00;;;24.27;49.23;100640.97;12254445;19;19923;-85
2023/06/30 06:49:07;;;;;;;;;;;25.00;49.90;;;24.30;49.27;100645.13;12253782;19;19918;-85
2023/06/30 06:53:21;;;;;;;;;;;25.00;49.80;;;24.29;49.54;100641.66;12248385;19;21402;-85
2023/06/30 06:57:22;;;;;;;;;;;25.10;49.90;;;24.21;49.29;100625.69;12253575;19;19918;-85
2023/06/30 07:01:24;;;;;;;;;;;25.10;49.90;;;24.37;49.19;100650.63;12251345;19;20004;-85
2023/06/30 07:05:26;;;;;;;;;;;25.10;49.80;;;24.37;49.35;100637.28;12255989;19;20360;-85
2023/06/30 07:09:27;;;;;;;;;;;25.20;49.90;;;24.52;49.63;100659.56;12254237;19;19927;-85
2023/06/30 07:13:29;;;;;;;;;;;25.20;50.00;;;24.43;49.17;100648.06;12251060;19;19907;-85
2023/06/30 07:17:31;;;;;;;;;;;25.20;50.00;;;24.55;49.25;100659.22;12254159;19;19919;-84
2023/06/30 07:21:33;;;;;;;;;;;25.30;50.00;;;24.36;49.58;100641.78;12254465;19;19922;-85
2023/06/30 07:25:34;;;;;;;;;;;25.30;49.90;;;24.49;49.71;100654.56;12252267;19;20351;-85
2023/06/30 07:29:36;;;;;;;;;;;25.30;50.10;;;24.60;49.16;100662.19;12251531;19;19919;-85
2023/06/30 07:33:38;;;;;;;;;;;25.30;50.10;;;24.57;49.59;100662.50;12250064;19;19923;-85
2023/06/30 07:37:39;;;;;;;;;;;25.30;50.20;;;24.66;49.51;100661.47;12251771;19;20258;-86
2023/06/30 07:41:41;;;;;;;;;;;25.40;50.20;;;24.66;49.30;100645.44;12264032;19;19919;-86
2023/06/30 07:45:42;;;;;;;;;;;25.40;50.20;;;24.71;49.53;100653.75;12265110;19;20334;-85
2023/06/30 07:49:44;;;;;;;;;;;25.40;50.20;;;24.55;49.59;100619.16;12259388;19;19926;-85
2023/06/30 07:53:46;;;;;;;;;;;25.50;50.20;;;24.73;49.57;100646.41;12257478;19;20014;-85
2023/06/30 07:57:48;;;;;;;;;;;25.50;50.30;;;24.76;49.83;100639.84;12258424;19;19931;-85
2023/06/30 08:01:51;;;;;;;;;;;25.50;50.20;;;24.79;49.46;100642.16;12247505;19;19923;-83
2023/06/30 08:05:52;;;;;;;;;;;25.50;50.40;;;24.65;49.87;100622.41;12242758;19;19955;-83
2023/06/30 08:09:54;;;;;;;;;;;25.50;50.30;;;24.83;49.45;100656.00;12245980;19;19923;-83
2023/06/30 08:13:56;;;;;;;;;;;25.60;50.40;;;24.79;49.71;100649.31;12245866;19;19918;-84
2023/06/30 08:17:57;;;;;;;;;;;25.60;50.30;;;24.89;49.50;100661.44;12248107;19;19974;-83
2023/06/30 08:22:01;;;;;;;;;;;25.60;50.40;;;24.93;49.95;100664.59;12247834;19;19923;-83
2023/06/30 08:26:02;;;;;;;;;;;25.70;50.40;;;24.92;49.47;100666.44;12247317;19;19921;-85
2023/06/30 08:30:13;;;;;;;;;;;25.70;50.50;;;24.98;50.07;100658.69;12300578;19;19959;-84
2023/06/30 08:34:15;;;;;;;;;;;25.70;50.40;;;25.00;49.56;100657.50;12301631;19;19925;-84
2023/06/30 08:38:17;;;;;;;;;;;25.70;50.30;;;25.00;49.63;100652.16;12301743;19;19943;-84
2023/06/30 08:42:22;;;;;;;;;;;25.80;50.40;;;25.02;49.66;100652.81;12300956;19;19914;-84
2023/06/30 08:46:24;;;;;;;;;;;25.80;50.40;;;25.04;50.09;100653.47;12303622;19;19915;-84
2023/06/30 08:50:26;;;;;;;;;;;25.90;50.70;;;25.13;49.74;100657.72;12303329;19;19923;-85
2023/06/30 08:54:31;;;;;;;;;;;25.90;50.50;;;25.03;49.72;100641.09;12299966;19;20422;-84
2023/06/30 08:58:32;;;;;;;;;;;25.90;50.50;;;25.20;49.67;100668.56;12304036;19;20567;-84
2023/06/30 09:02:36;;;;;;;;;;;25.90;50.50;;;25.23;49.72;100662.84;12302509;19;19910;-84
2023/06/30 09:06:42;;;;;;;;;;;26.00;50.60;;;25.15;49.71;100653.06;12303103;19;19914;-85
2023/06/30 09:10:45;;;;;;;;;;;26.00;50.50;;;25.23;50.15;100662.84;12303057;19;20285;-85
2023/06/30 09:14:49;;;;;;;;;;;26.00;50.40;;;25.21;49.78;100658.69;12296970;19;19935;-84
2023/06/30 09:18:51;;;;;;;;;;;26.10;50.40;;;25.24;49.64;100661.81;12297731;19;19919;-84
2023/06/30 09:22:53;;;;;;;;;;;26.10;50.40;;;25.26;50.23;100656.31;12296678;19;19994;-84
2023/06/30 09:26:55;;;;;;;;;;;26.10;50.50;;;25.31;50.02;100651.25;12297414;19;19930;-84
2023/06/30 09:30:58;;;;;;;;;;;26.10;50.50;;;25.38;49.93;100665.50;12301709;19;19933;-84
2023/06/30 09:35:06;;;;;;;;;;;26.20;50.30;;;25.38;49.97;100670.88;12302122;19;19926;-84
2023/06/30 09:39:08;;;;;;;;;;;26.20;50.00;;;25.36;49.82;100654.19;12283103;19;19922;-84
2023/06/30 09:43:17;;;;;;;;;;;26.20;50.00;;;25.37;49.87;100651.31;12250899;19;20287;-84
2023/06/30 09:47:19;;;;;;;;;;;26.20;50.00;;;25.20;50.03;100625.78;12252095;19;19937;-84
2023/06/30 09:51:22;;;;;;;;;;;26.20;49.80;;;25.38;49.76;100655.69;12251336;19;19927;-84
2023/06/30 09:55:24;;;;;;;;;;;26.20;49.80;;;25.44;49.73;100661.28;12254254;19;19926;-84
2023/06/30 09:59:26;;;;;;;;;;;26.20;49.70;;;25.43;49.91;100652.44;12253527;19;20472;-84
2023/06/30 10:03:28;;;;;;;;;;;26.20;49.90;;;25.38;50.11;100647.66;12252098;19;19915;-84
2023/06/30 10:07:29;;;;;;;;;;;26.20;49.70;;;25.44;50.11;100653.25;12252286;19;19927;-84
2023/06/30 10:11:32;;;;;;;;;;;26.20;49.70;;;25.39;49.69;100643.97;12251673;19;19925;-84
2023/06/30 10:15:35;;;;;;;;;;;26.30;49.80;;;25.51;50.17;100649.66;12252261;19;19914;-84
2023/06/30 10:19:39;;;;;;;;;;;26.30;49.70;;;25.53;50.19;100653.00;12251775;19;19918;-84
2023/06/30 10:23:42;;;;;;;;;;;26.30;49.80;;;25.60;49.74;100640.56;12249190;19;19923;-85
2023/06/30 10:27:46;;;;;;;;;;;26.40;50.20;;;25.55;49.82;100618.06;12250490;19;20351;-84
2023/06/30 10:31:48;;;;;;;;;;;26.50;49.80;;;25.58;50.06;100613.16;12250403;19;19919;-82
2023/06/30 10:35:50;;;;;;;;;;;26.50;49.80;;;25.72;49.98;100621.34;12252037;19;19915;-84
2023/06/30 10:39:52;;;;;;;;;;;26.60;50.00;;;25.80;50.07;100627.44;12252399;19;19932;-84
2023/06/30 10:44:02;;;;;;;;;;;26.70;49.80;;;25.92;49.98;100629.66;12249048;19;19919;-85
2023/06/30 10:48:14;;;;;;;;;;;26.70;49.80;;;25.94;49.68;100636.47;12251271;19;19923;-83
2023/06/30 10:52:26;;;;;;;;;;;26.80;49.80;;;25.91;50.10;100641.38;12247555;19;19923;-84
2023/06/30 10:56:29;;;;;;;;;;;26.80;50.30;;;25.81;50.03;100636.28;12251473;19;19931;-83
2023/06/30 11:00:33;;;;;;;;;;;26.70;50.20;;;25.81;49.67;100644.31;12250194;19;19935;-84
2023/06/30 11:04:41;;;;;;;;;;;26.60;50.10;;;25.72;49.74;100638.22;12245746;19;20557;-84
2023/06/30 11:09:00;;;;;;;;;;;26.60;50.20;;;25.54;50.06;100621.72;12247578;19;19986;-84
2023/06/30 11:13:09;;;;;;;;;;;26.50;50.20;;;25.65;49.66;100650.69;12246494;19;19919;-84
2023/06/30 11:17:12;;;;;;;;;;;26.40;50.40;;;25.63;49.96;100647.38;12250048;19;19918;-84
2023/06/30 11:21:14;;;;;;;;;;;26.30;50.50;;;25.51;50.04;100627.44;12249486;19;19931;-84
2023/06/30 11:25:19;;;;;;;;;;;26.30;50.60;;;25.56;49.89;100641.91;12248626;19;20329;-84
2023/06/30 11:29:21;;;;;;;;;;;26.20;50.90;;;25.44;49.96;100638.06;12246863;19;19974;-86
2023/06/30 11:33:22;;;;;;;;;;;26.20;50.90;;;25.35;50.13;100639.16;12245476;19;19950;-86
2023/06/30 11:37:25;;;;;;;;;;;26.10;50.80;;;25.34;50.01;100640.19;12244955;19;19962;-86
2023/06/30 11:41:31;;;;;;;;;;;26.00;51.10;;;25.21;50.25;100615.91;12245736;19;19951;-85
2023/06/30 11:45:33;;;;;;;;;;;26.00;51.30;;;25.13;50.02;100600.75;12244920;19;19919;-86
2023/06/30 11:49:36;;;;;;;;;;;26.00;51.70;;;25.32;50.23;100640.34;12238542;19;20549;-87
2023/06/30 11:53:42;;;;;;;;;;;26.00;51.40;;;25.27;50.07;100633.88;12246345;19;19926;-87
2023/06/30 11:57:47;;;;;;;;;;;25.90;51.80;;;25.05;50.11;100609.69;12245791;19;19922;-87
2023/06/30 12:01:48;;;;;;;;;;;25.90;52.00;;;25.12;49.92;100634.69;12246695;19;19930;-86
2023/06/30 12:05:57;;;;;;;;;;;25.90;52.30;;;25.05;50.02;100638.25;12244684;19;19927;-86
2023/06/30 12:10:00;;;;;;;;;;;25.80;51.50;;;24.72;50.24;100591.28;12246567;19;19934;-86
2023/06/30 12:14:13;;;;;;;;;;;25.80;51.30;;;25.06;50.42;100650.59;12242866;19;19918;-86
2023/06/30 12:18:14;;;;;;;;;;;25.70;51.30;;;24.95;50.41;100627.81;12247201;19;19907;-86
2023/06/30 12:22:27;;;;;;;;;;;25.70;51.70;;;24.98;50.06;100640.84;12246467;19;20326;-86
2023/06/30 12:26:29;;;;;;;;;;;25.60;51.20;;;24.86;50.21;100621.72;12241049;19;19922;-86
2023/06/30 12:30:31;;;;;;;;;;;25.60;51.20;;;24.83;50.11;100629.28;12242440;19;19915;-86
2023/06/30 12:34:33;;;;;;;;;;;25.50;51.00;;;24.80;50.54;100630.47;12235257;19;19927;-86
2023/06/30 12:38:35;;;;;;;;;;;25.40;51.00;;;24.69;50.20;100620.22;12243966;19;19949;-87
2023/06/30 12:42:36;;;;;;;;;;;25.40;51.10;;;24.72;50.63;100622.53;12241922;19;20268;-86
2023/06/30 12:46:38;;;;;;;;;;;25.40;51.10;;;24.76;50.12;100622.97;12244603;19;19910;-86
2023/06/30 12:50:39;;;;;;;;;;;25.40;51.50;;;24.79;50.22;100628.81;12242112;19;19942;-87
2023/06/30 12:54:40;;;;;;;;;;;25.40;51.30;;;24.76;50.63;100631.00;12239440;19;20259;-86
2023/06/30 12:58:42;;;;;;;;;;;25.40;51.30;;;24.59;50.66;100615.09;12243320;19;19923;-86
2023/06/30 13:02:43;;;;;;;;;;;25.40;51.40;;;24.65;50.25;100617.06;12241746;19;19926;-86
2023/06/30 13:06:44;;;;;;;;;;;25.40;51.50;;;24.54;50.21;100604.13;12242218;19;19979;-87
2023/06/30 13:10:46;;;;;;;;;;;25.40;51.50;;;24.78;50.71;100642.34;12245012;19;19921;-86
2023/06/30 13:14:47;;;;;;;;;;;25.40;51.50;;;24.73;50.72;100630.38;12244386;19;19923;-86
2023/06/30 13:18:48;;;;;;;;;;;25.40;51.60;;;24.72;50.64;100623.34;12254185;19;19925;-86
2023/06/30 13:22:50;;;;;;;;;;;25.40;51.50;;;24.83;50.39;100646.13;12252576;19;19915;-86
2023/06/30 13:26:52;;;;;;;;;;;25.40;51.70;;;24.80;50.56;100651.84;12254229;19;19922;-86
2023/06/30 13:30:53;;;;;;;;;;;25.40;51.80;;;24.67;50.88;100625.72;12255530;19;19930;-86
2023/06/30 13:34:54;;;;;;;;;;;25.40;51.50;;;24.70;50.52;100640.56;12250690;19;19941;-86
2023/06/30 13:38:58;;;;;;;;;;;25.30;51.50;;;24.44;50.89;100608.91;12250443;19;19918;-86
2023/06/30 13:42:59;;;;;;;;;;;25.30;51.30;;;24.59;50.38;100649.81;12250082;19;19936;-86
2023/06/30 13:47:01;;;;;;;;;;;25.20;51.30;;;24.47;50.84;100652.09;12253411;19;19942;-86
2023/06/30 13:51:03;;;;;;;;;;;25.20;51.10;;;24.35;50.78;100641.94;12253213;19;19962;-86
2023/06/30 13:55:05;;;;;;;;;;;25.10;52.00;;;24.28;50.97;100636.50;12252195;19;19915;-86
2023/06/30 13:59:07;;;;;;;;;;;24.90;51.20;;;24.22;50.51;100634.50;12252808;19;19915;-86
2023/06/30 14:03:09;;;;;;;;;;;24.90;51.10;;;24.21;50.76;100636.34;12248569;19;20268;-86
2023/06/30 14:07:10;;;;;;;;;;;24.80;51.20;;;24.11;50.73;100632.25;12252545;19;19930;-90
2023/06/30 14:11:14;;;;;;;;;;;24.80;51.30;;;24.17;50.75;100651.06;12254153;19;19919;-90
2023/06/30 14:15:16;;;;;;;;;;;24.80;51.20;;;24.13;50.84;100652.41;12254427;19;19918;-91
2023/06/30 14:19:17;;;;;;;;;;;24.80;51.40;;;24.10;50.48;100644.75;12251238;19;19931;-88
2023/06/30 14:23:18;;;;;;;;;;;24.70;51.30;;;23.92;50.87;100615.66;12243576;19;20253;-88
2023/06/30 14:27:20;;;;;;;;;;;24.70;51.40;;;24.05;50.95;100641.78;12252147;19;19922;-88
2023/06/30 14:31:21;;;;;;;;;;;24.70;51.40;;;24.01;50.67;100637.81;12252175;19;19929;-88
2023/06/30 14:35:22;;;;;;;;;;;24.70;51.30;;;24.01;51.08;100635.16;12250988;19;20339;-89
2023/06/30 14:39:24;;;;;;;;;;;24.70;51.40;;;23.92;50.64;100614.84;12252359;19;19927;-88
2023/06/30 14:43:26;;;;;;;;;;;24.70;51.50;;;23.95;51.07;100614.50;12242201;19;19919;-88
2023/06/30 14:47:27;;;;;;;;;;;24.70;51.40;;;23.90;50.76;100611.50;12247645;19;19914;-88
2023/06/30 14:51:28;;;;;;;;;;;24.70;51.50;;;24.03;50.86;100622.44;12251580;19;19938;-89
2023/06/30 14:55:30;;;;;;;;;;;24.70;51.50;;;23.94;51.10;100595.00;12250241;19;19946;-89
2023/06/30 14:59:31;;;;;;;;;;;24.70;51.50;;;24.02;51.03;100604.78;12247688;19;19924;-88
2023/06/30 15:03:33;;;;;;;;;;;24.70;51.50;;;24.07;51.19;100621.09;12247495;19;19950;-88
2023/06/30 15:07:35;;;;;;;;;;;24.70;51.40;;;24.11;50.73;100629.59;12249283;19;19918;-89
2023/06/30 15:11:36;;;;;;;;;;;24.80;51.60;;;24.02;51.02;100616.28;12248769;19;19951;-88
2023/06/30 15:15:37;;;;;;;;;;;24.70;51.50;;;24.02;51.22;100620.78;12250939;19;19960;-88
2023/06/30 15:19:39;;;;;;;;;;;24.80;51.50;;;24.08;51.28;100633.44;12250374;19;19930;-88
2023/06/30 15:23:41;;;;;;;;;;;24.80;51.50;;;24.07;51.26;100629.94;12245275;19;20258;-89
2023/06/30 15:27:42;;;;;;;;;;;24.70;51.40;;;24.03;51.34;100614.44;12246928;19;19914;-89
2023/06/30 15:31:43;;;;;;;;;;;24.80;51.40;;;24.04;51.09;100619.63;12246614;19;20341;-87
2023/06/30 15:35:45;;;;;;;;;;;24.80;51.30;;;24.10;51.13;100623.41;12243674;19;19918;-88
2023/06/30 15:39:47;;;;;;;;;;;24.80;51.30;;;24.06;51.15;100625.63;12248014;19;19926;-88
2023/06/30 15:43:49;;;;;;;;;;;24.80;51.40;;;24.03;51.16;100617.97;12244814;19;20306;-90
2023/06/30 15:47:53;;;;;;;;;;;24.80;51.40;;;23.99;50.87;100605.97;12244595;19;19990;-88
2023/06/30 15:51:54;;;;;;;;;;;24.70;51.40;;;23.99;50.96;100600.63;12246322;19;20330;-88
2023/06/30 15:55:56;;;;;;;;;;;24.70;51.30;;;23.91;51.11;100597.19;12246263;19;19911;-88
2023/06/30 15:59:57;;;;;;;;;;;24.80;51.40;;;24.02;51.42;100605.63;12249286;19;19915;-88
2023/06/30 16:03:59;;;;;;;;;;;24.80;51.40;;;24.02;50.98;100600.28;12243065;19;19919;-87
2023/06/30 16:08:02;;;;;;;;;;;24.80;51.20;;;24.00;51.06;100618.28;12247232;19;19956;-88
2023/06/30 16:12:06;;;;;;;;;;;24.70;51.30;;;23.93;50.97;100611.19;12245709;19;19921;-87
2023/06/30 16:16:07;;;;;;;;;;;24.70;51.20;;;23.85;50.92;100612.06;12246993;19;19927;-87
2023/06/30 16:20:09;;;;;;;;;;;24.70;51.40;;;23.85;51.40;100628.88;12247793;19;19915;-88
2023/06/30 16:24:10;;;;;;;;;;;24.60;51.20;;;23.75;51.01;100622.91;12237554;19;19919;-88
2023/06/30 16:28:12;;;;;;;;;;;24.60;51.30;;;23.65;51.45;100598.25;12245907;19;19922;-88
2023/06/30 16:32:13;;;;;;;;;;;24.50;51.30;;;23.50;51.14;100589.34;12245081;19;19913;-88
2023/06/30 16:36:15;;;;;;;;;;;24.40;51.40;;;23.58;51.32;100610.63;12239670;19;19982;-89
2023/06/30 16:40:17;;;;;;;;;;;24.40;51.40;;;23.63;51.04;100622.44;12246348;19;19922;-87
2023/06/30 16:44:18;;;;;;;;;;;24.40;51.50;;;23.68;51.47;100634.41;12243275;19;19914;-90
2023/06/30 16:48:20;;;;;;;;;;;24.30;51.60;;;23.62;51.02;100630.59;12244596;19;19939;-89
2023/06/30 16:52:22;;;;;;;;;;;24.30;51.60;;;23.57;51.34;100628.47;12256753;19;19926;-89
2023/06/30 16:56:25;;;;;;;;;;;24.30;51.60;;;23.48;51.24;100623.34;12257364;19;19922;-88
2023/06/30 17:00:27;;;;;;;;;;;24.30;52.10;;;23.52;51.11;100628.16;12257583;19;19923;-88
2023/06/30 17:04:28;;;;;;;;;;;24.30;51.70;;;23.45;51.38;100616.50;12251229;19;19970;-87
2023/06/30 17:08:30;;;;;;;;;;;24.20;51.70;;;23.46;51.69;100626.16;12252490;19;19915;-87
2023/06/30 17:12:33;;;;;;;;;;;24.20;51.70;;;23.33;51.59;100608.06;12252073;19;19919;-88
2023/06/30 17:16:35;;;;;;;;;;;24.10;51.60;;;23.34;51.46;100607.03;12254400;19;19930;-89
2023/06/30 17:20:36;;;;;;;;;;;24.10;51.80;;;23.39;51.15;100626.03;12257962;19;19918;-87
2023/06/30 17:24:37;;;;;;;;;;;24.10;51.50;;;23.37;51.31;100622.69;12244019;19;20257;-88
2023/06/30 17:28:39;;;;;;;;;;;24.10;51.70;;;23.26;51.09;100620.38;12251248;19;19930;-88
2023/06/30 17:32:40;;;;;;;;;;;24.00;51.20;;;23.03;51.47;100587.47;12251547;19;19919;-88
2023/06/30 17:36:42;;;;;;;;;;;24.00;51.30;;;23.22;51.21;100621.72;12252221;19;19925;-88
2023/06/30 17:40:43;;;;;;;;;;;24.00;51.40;;;23.26;51.63;100631.03;12254357;19;19922;-88
2023/06/30 17:44:45;;;;;;;;;;;24.00;51.30;;;23.18;51.20;100623.91;12250111;19;19937;-88
2023/06/30 17:48:55;;;;;;;;;;;23.90;51.30;;;23.10;51.63;100610.59;12251040;19;19918;-88
2023/06/30 17:52:57;;;;;;;;;;;23.90;51.20;;;23.21;51.62;100628.06;12253430;19;19945;-88
2023/06/30 17:56:59;;;;;;;;;;;23.90;51.20;;;23.07;51.40;100610.09;12251843;19;19919;-88
2023/06/30 18:01:00;;;;;;;;;;;23.90;51.20;;;23.11;51.50;100635.41;12250686;19;19939;-88
2023/06/30 18:05:02;;;;;;;;;;;23.90;51.20;;;22.99;51.34;100605.63;12252496;19;20257;-88
2023/06/30 18:09:04;;;;;;;;;;;23.80;51.10;;;22.98;51.15;100611.97;12242551;19;19922;-88
2023/06/30 18:13:08;;;;;;;;;;;23.80;51.00;;;22.95;51.34;100613.09;12250798;19;19996;-88